sensor_id;sensor_type;location;lat;lon;timestamp;P1;durP1;ratioP1;P2;durP2;ratioP2
70071;SDS011;57434;42.794;23.302;2022-09-13T00:01:41;10.32;;;4.90;;
70071;SDS011;57434;42.794;23.302;2022-09-13T00:04:10;9.02;;;4.68;;
70071;SDS011;57434;42.794;23.302;2022-09-13T00:06:36;8.90;;;5.17;;
70071;SDS011;57434;42.794;23.302;2022-09-13T00:09:04;9.75;;;4.82;;
70071;SDS011;57434;42.794;23.302;2022-09-13T00:11:40;7.75;;;4.45;;
70071;SDS011;57434;42.794;23.302;2022-09-13T00:14:09;8.60;;;4.32;;
70071;SDS011;57434;42.794;23.302;2022-09-13T00:16:37;8.55;;;4.45;;
70071;SDS011;57434;42.794;23.302;2022-09-13T00:19:03;9.87;;;5.37;;
70071;SDS011;57434;42.794;23.302;2022-09-13T00:21:29;8.77;;;4.47;;
70071;SDS011;57434;42.794;23.302;2022-09-13T00:23:55;14.18;;;4.88;;
70071;SDS011;57434;42.794;23.302;2022-09-13T00:26:23;10.50;;;4.77;;
70071;SDS011;57434;42.794;23.302;2022-09-13T00:28:53;10.95;;;4.40;;
70071;SDS011;57434;42.794;23.302;2022-09-13T00:31:23;9.35;;;4.60;;
70071;SDS011;57434;42.794;23.302;2022-09-13T00:33:51;7.80;;;4.23;;
70071;SDS011;57434;42.794;23.302;2022-09-13T00:36:18;8.13;;;4.00;;
70071;SDS011;57434;42.794;23.302;2022-09-13T00:38:44;8.18;;;4.47;;
70071;SDS011;57434;42.794;23.302;2022-09-13T00:41:12;7.20;;;4.00;;
70071;SDS011;57434;42.794;23.302;2022-09-13T00:43:53;8.00;;;4.45;;
70071;SDS011;57434;42.794;23.302;2022-09-13T00:49:20;10.45;;;4.45;;
70071;SDS011;57434;42.794;23.302;2022-09-13T00:51:52;7.05;;;3.80;;
70071;SDS011;57434;42.794;23.302;2022-09-13T00:54:23;7.18;;;3.90;;
70071;SDS011;57434;42.794;23.302;2022-09-13T00:56:54;8.32;;;4.63;;
70071;SDS011;57434;42.794;23.302;2022-09-13T00:59:26;7.97;;;4.27;;
70071;SDS011;57434;42.794;23.302;2022-09-13T01:01:56;9.20;;;4.10;;
70071;SDS011;57434;42.794;23.302;2022-09-13T01:04:26;8.07;;;4.90;;
70071;SDS011;57434;42.794;23.302;2022-09-13T01:06:55;7.78;;;4.10;;
70071;SDS011;57434;42.794;23.302;2022-09-13T01:09:25;10.25;;;4.45;;
70071;SDS011;57434;42.794;23.302;2022-09-13T01:11:54;8.13;;;4.40;;
70071;SDS011;57434;42.794;23.302;2022-09-13T01:14:29;10.70;;;4.40;;
70071;SDS011;57434;42.794;23.302;2022-09-13T01:16:56;6.80;;;4.28;;
70071;SDS011;57434;42.794;23.302;2022-09-13T01:19:22;9.43;;;4.47;;
70071;SDS011;57434;42.794;23.302;2022-09-13T01:22:01;6.70;;;3.83;;
70071;SDS011;57434;42.794;23.302;2022-09-13T01:24:39;7.43;;;4.00;;
70071;SDS011;57434;42.794;23.302;2022-09-13T01:27:19;8.93;;;4.10;;
70071;SDS011;57434;42.794;23.302;2022-09-13T01:30:04;8.35;;;3.95;;
70071;SDS011;57434;42.794;23.302;2022-09-13T01:38:37;7.40;;;4.20;;
70071;SDS011;57434;42.794;23.302;2022-09-13T01:46:48;8.73;;;4.53;;
70071;SDS011;57434;42.794;23.302;2022-09-13T01:52:48;10.05;;;4.10;;
70071;SDS011;57434;42.794;23.302;2022-09-13T01:55:28;8.48;;;4.88;;
70071;SDS011;57434;42.794;23.302;2022-09-13T02:03:53;10.40;;;4.83;;
70071;SDS011;57434;42.794;23.302;2022-09-13T02:06:25;9.55;;;4.40;;
70071;SDS011;57434;42.794;23.302;2022-09-13T02:08:57;10.95;;;5.00;;
70071;SDS011;57434;42.794;23.302;2022-09-13T02:11:26;9.48;;;4.50;;
70071;SDS011;57434;42.794;23.302;2022-09-13T02:16:33;8.97;;;4.53;;
70071;SDS011;57434;42.794;23.302;2022-09-13T02:19:16;8.13;;;4.18;;
70071;SDS011;57434;42.794;23.302;2022-09-13T02:21:58;8.35;;;4.47;;
70071;SDS011;57434;42.794;23.302;2022-09-13T02:24:28;7.22;;;3.75;;
70071;SDS011;57434;42.794;23.302;2022-09-13T02:27:05;7.97;;;4.53;;
70071;SDS011;57434;42.794;23.302;2022-09-13T02:29:37;7.97;;;4.17;;
70071;SDS011;57434;42.794;23.302;2022-09-13T02:35:30;9.02;;;4.07;;
70071;SDS011;57434;42.794;23.302;2022-09-13T02:37:47;7.88;;;4.00;;
70071;SDS011;57434;42.794;23.302;2022-09-13T02:40:24;7.53;;;3.92;;
70071;SDS011;57434;42.794;23.302;2022-09-13T02:43:12;8.63;;;4.37;;
70071;SDS011;57434;42.794;23.302;2022-09-13T02:46:09;11.13;;;4.25;;
70071;SDS011;57434;42.794;23.302;2022-09-13T02:48:48;10.93;;;5.13;;
70071;SDS011;57434;42.794;23.302;2022-09-13T02:51:49;9.07;;;4.70;;
70071;SDS011;57434;42.794;23.302;2022-09-13T02:54:23;7.82;;;4.15;;
70071;SDS011;57434;42.794;23.302;2022-09-13T02:57:19;10.73;;;4.30;;
70071;SDS011;57434;42.794;23.302;2022-09-13T02:59:53;8.55;;;4.40;;
70071;SDS011;57434;42.794;23.302;2022-09-13T03:02:20;10.85;;;4.25;;
70071;SDS011;57434;42.794;23.302;2022-09-13T03:04:50;7.68;;;4.15;;
70071;SDS011;57434;42.794;23.302;2022-09-13T03:07:16;7.97;;;4.10;;
70071;SDS011;57434;42.794;23.302;2022-09-13T03:09:45;7.63;;;4.20;;
70071;SDS011;57434;42.794;23.302;2022-09-13T03:15:15;8.50;;;4.00;;
70071;SDS011;57434;42.794;23.302;2022-09-13T03:18:23;6.78;;;3.63;;
70071;SDS011;57434;42.794;23.302;2022-09-13T03:23:55;9.60;;;4.55;;
70071;SDS011;57434;42.794;23.302;2022-09-13T03:29:10;7.83;;;4.00;;
70071;SDS011;57434;42.794;23.302;2022-09-13T03:34:22;7.05;;;3.90;;
70071;SDS011;57434;42.794;23.302;2022-09-13T03:39:47;6.82;;;3.58;;
70071;SDS011;57434;42.794;23.302;2022-09-13T03:42:27;7.80;;;4.27;;
70071;SDS011;57434;42.794;23.302;2022-09-13T03:44:59;7.25;;;3.78;;
70071;SDS011;57434;42.794;23.302;2022-09-13T03:47:27;7.13;;;3.65;;
70071;SDS011;57434;42.794;23.302;2022-09-13T03:49:57;8.07;;;4.10;;
70071;SDS011;57434;42.794;23.302;2022-09-13T03:52:24;7.00;;;3.63;;
70071;SDS011;57434;42.794;23.302;2022-09-13T03:54:51;7.77;;;3.87;;
70071;SDS011;57434;42.794;23.302;2022-09-13T03:57:20;8.77;;;4.22;;
70071;SDS011;57434;42.794;23.302;2022-09-13T03:59:48;6.97;;;3.88;;
70071;SDS011;57434;42.794;23.302;2022-09-13T04:02:15;7.53;;;3.50;;
70071;SDS011;57434;42.794;23.302;2022-09-13T04:04:42;7.03;;;4.03;;
70071;SDS011;57434;42.794;23.302;2022-09-13T04:07:11;7.13;;;3.50;;
70071;SDS011;57434;42.794;23.302;2022-09-13T04:09:41;8.05;;;3.80;;
70071;SDS011;57434;42.794;23.302;2022-09-13T04:12:07;10.40;;;4.57;;
70071;SDS011;57434;42.794;23.302;2022-09-13T04:14:34;8.07;;;4.07;;
70071;SDS011;57434;42.794;23.302;2022-09-13T04:17:00;8.00;;;3.92;;
70071;SDS011;57434;42.794;23.302;2022-09-13T04:19:26;9.00;;;4.43;;
70071;SDS011;57434;42.794;23.302;2022-09-13T04:21:52;9.27;;;4.50;;
70071;SDS011;57434;42.794;23.302;2022-09-13T04:24:22;9.88;;;3.90;;
70071;SDS011;57434;42.794;23.302;2022-09-13T04:26:49;8.13;;;4.30;;
70071;SDS011;57434;42.794;23.302;2022-09-13T04:29:16;8.75;;;4.30;;
70071;SDS011;57434;42.794;23.302;2022-09-13T04:31:43;9.07;;;4.93;;
70071;SDS011;57434;42.794;23.302;2022-09-13T04:34:11;8.63;;;4.60;;
70071;SDS011;57434;42.794;23.302;2022-09-13T04:36:38;9.38;;;4.60;;
70071;SDS011;57434;42.794;23.302;2022-09-13T04:39:04;7.50;;;4.03;;
70071;SDS011;57434;42.794;23.302;2022-09-13T04:41:30;9.50;;;4.53;;
70071;SDS011;57434;42.794;23.302;2022-09-13T04:43:57;7.53;;;4.10;;
70071;SDS011;57434;42.794;23.302;2022-09-13T04:46:23;10.38;;;4.65;;
70071;SDS011;57434;42.794;23.302;2022-09-13T04:48:49;9.98;;;4.47;;
70071;SDS011;57434;42.794;23.302;2022-09-13T04:51:16;9.98;;;4.72;;
70071;SDS011;57434;42.794;23.302;2022-09-13T04:53:46;7.57;;;4.20;;
70071;SDS011;57434;42.794;23.302;2022-09-13T04:56:18;7.95;;;4.38;;
70071;SDS011;57434;42.794;23.302;2022-09-13T04:58:44;10.02;;;4.10;;
70071;SDS011;57434;42.794;23.302;2022-09-13T05:01:10;8.85;;;4.78;;
70071;SDS011;57434;42.794;23.302;2022-09-13T05:03:36;8.37;;;4.40;;
70071;SDS011;57434;42.794;23.302;2022-09-13T05:06:06;9.73;;;4.88;;
70071;SDS011;57434;42.794;23.302;2022-09-13T05:08:34;8.05;;;4.95;;
70071;SDS011;57434;42.794;23.302;2022-09-13T05:11:01;8.60;;;4.40;;
70071;SDS011;57434;42.794;23.302;2022-09-13T05:13:28;12.13;;;5.28;;
70071;SDS011;57434;42.794;23.302;2022-09-13T05:15:58;8.63;;;4.73;;
70071;SDS011;57434;42.794;23.302;2022-09-13T05:18:28;11.90;;;6.50;;
70071;SDS011;57434;42.794;23.302;2022-09-13T05:20:56;15.30;;;5.60;;
70071;SDS011;57434;42.794;23.302;2022-09-13T05:23:24;13.95;;;5.47;;
70071;SDS011;57434;42.794;23.302;2022-09-13T05:28:24;8.93;;;4.00;;
70071;SDS011;57434;42.794;23.302;2022-09-13T05:33:32;7.03;;;3.78;;
70071;SDS011;57434;42.794;23.302;2022-09-13T05:36:05;9.07;;;4.10;;
70071;SDS011;57434;42.794;23.302;2022-09-13T05:38:32;10.55;;;4.13;;
70071;SDS011;57434;42.794;23.302;2022-09-13T05:40:59;10.97;;;4.07;;
70071;SDS011;57434;42.794;23.302;2022-09-13T05:43:32;6.95;;;3.58;;
70071;SDS011;57434;42.794;23.302;2022-09-13T05:46:00;9.98;;;4.00;;
70071;SDS011;57434;42.794;23.302;2022-09-13T05:48:27;8.75;;;3.70;;
70071;SDS011;57434;42.794;23.302;2022-09-13T05:50:54;8.40;;;3.75;;
70071;SDS011;57434;42.794;23.302;2022-09-13T05:53:20;9.10;;;3.67;;
70071;SDS011;57434;42.794;23.302;2022-09-13T05:55:46;7.22;;;3.72;;
70071;SDS011;57434;42.794;23.302;2022-09-13T05:58:14;6.95;;;3.15;;
70071;SDS011;57434;42.794;23.302;2022-09-13T06:00:40;11.50;;;3.95;;
70071;SDS011;57434;42.794;23.302;2022-09-13T06:03:06;7.33;;;3.43;;
70071;SDS011;57434;42.794;23.302;2022-09-13T06:05:32;8.25;;;3.25;;
70071;SDS011;57434;42.794;23.302;2022-09-13T06:08:00;7.72;;;3.25;;
70071;SDS011;57434;42.794;23.302;2022-09-13T06:10:26;9.90;;;3.40;;
70071;SDS011;57434;42.794;23.302;2022-09-13T06:12:53;9.67;;;4.00;;
70071;SDS011;57434;42.794;23.302;2022-09-13T06:15:21;7.88;;;3.42;;
70071;SDS011;57434;42.794;23.302;2022-09-13T06:17:47;8.02;;;3.88;;
70071;SDS011;57434;42.794;23.302;2022-09-13T06:20:13;7.93;;;3.50;;
70071;SDS011;57434;42.794;23.302;2022-09-13T06:22:39;10.83;;;3.70;;
70071;SDS011;57434;42.794;23.302;2022-09-13T06:25:07;14.57;;;4.55;;
70071;SDS011;57434;42.794;23.302;2022-09-13T06:27:43;7.50;;;3.55;;
70071;SDS011;57434;42.794;23.302;2022-09-13T06:30:09;7.93;;;3.80;;
70071;SDS011;57434;42.794;23.302;2022-09-13T06:32:37;11.18;;;3.00;;
70071;SDS011;57434;42.794;23.302;2022-09-13T06:35:03;6.38;;;2.80;;
70071;SDS011;57434;42.794;23.302;2022-09-13T06:37:29;6.45;;;3.35;;
70071;SDS011;57434;42.794;23.302;2022-09-13T06:39:54;6.70;;;3.03;;
70071;SDS011;57434;42.794;23.302;2022-09-13T06:42:21;7.13;;;2.97;;
70071;SDS011;57434;42.794;23.302;2022-09-13T06:44:50;10.50;;;4.90;;
70071;SDS011;57434;42.794;23.302;2022-09-13T06:47:16;6.07;;;2.80;;
70071;SDS011;57434;42.794;23.302;2022-09-13T06:49:42;6.80;;;3.05;;
70071;SDS011;57434;42.794;23.302;2022-09-13T06:52:08;6.38;;;2.90;;
70071;SDS011;57434;42.794;23.302;2022-09-13T06:54:34;5.77;;;2.70;;
70071;SDS011;57434;42.794;23.302;2022-09-13T06:56:59;5.97;;;2.80;;
70071;SDS011;57434;42.794;23.302;2022-09-13T06:59:27;7.50;;;2.88;;
70071;SDS011;57434;42.794;23.302;2022-09-13T07:01:53;7.38;;;3.00;;
70071;SDS011;57434;42.794;23.302;2022-09-13T07:04:20;7.47;;;3.10;;
70071;SDS011;57434;42.794;23.302;2022-09-13T07:06:47;5.32;;;2.40;;
70071;SDS011;57434;42.794;23.302;2022-09-13T07:09:18;6.15;;;2.88;;
70071;SDS011;57434;42.794;23.302;2022-09-13T07:11:45;5.03;;;2.33;;
70071;SDS011;57434;42.794;23.302;2022-09-13T07:14:13;6.07;;;3.00;;
70071;SDS011;57434;42.794;23.302;2022-09-13T07:16:41;6.33;;;2.70;;
70071;SDS011;57434;42.794;23.302;2022-09-13T07:19:11;5.32;;;2.42;;
70071;SDS011;57434;42.794;23.302;2022-09-13T07:21:38;9.82;;;3.10;;
70071;SDS011;57434;42.794;23.302;2022-09-13T07:24:04;6.70;;;3.20;;
70071;SDS011;57434;42.794;23.302;2022-09-13T07:26:30;7.07;;;3.42;;
70071;SDS011;57434;42.794;23.302;2022-09-13T07:28:57;9.20;;;2.73;;
70071;SDS011;57434;42.794;23.302;2022-09-13T07:31:26;6.10;;;2.40;;
70071;SDS011;57434;42.794;23.302;2022-09-13T07:33:54;6.95;;;2.67;;
70071;SDS011;57434;42.794;23.302;2022-09-13T07:36:21;7.88;;;2.60;;
70071;SDS011;57434;42.794;23.302;2022-09-13T07:38:48;5.97;;;2.50;;
70071;SDS011;57434;42.794;23.302;2022-09-13T07:41:15;5.85;;;2.47;;
70071;SDS011;57434;42.794;23.302;2022-09-13T07:43:43;4.78;;;2.15;;
70071;SDS011;57434;42.794;23.302;2022-09-13T07:46:09;5.32;;;2.55;;
70071;SDS011;57434;42.794;23.302;2022-09-13T07:48:39;7.15;;;2.80;;
70071;SDS011;57434;42.794;23.302;2022-09-13T07:51:08;4.77;;;1.90;;
70071;SDS011;57434;42.794;23.302;2022-09-13T07:53:36;6.90;;;2.40;;
70071;SDS011;57434;42.794;23.302;2022-09-13T07:56:03;6.72;;;2.33;;
70071;SDS011;57434;42.794;23.302;2022-09-13T07:58:31;4.93;;;2.30;;
70071;SDS011;57434;42.794;23.302;2022-09-13T08:01:00;4.95;;;2.03;;
70071;SDS011;57434;42.794;23.302;2022-09-13T08:03:52;5.37;;;2.57;;
70071;SDS011;57434;42.794;23.302;2022-09-13T08:06:26;5.03;;;2.00;;
70071;SDS011;57434;42.794;23.302;2022-09-13T08:08:54;4.88;;;2.20;;
70071;SDS011;57434;42.794;23.302;2022-09-13T08:11:24;4.47;;;1.88;;
70071;SDS011;57434;42.794;23.302;2022-09-13T08:13:53;4.57;;;2.00;;
70071;SDS011;57434;42.794;23.302;2022-09-13T08:16:21;5.37;;;2.10;;
70071;SDS011;57434;42.794;23.302;2022-09-13T08:18:48;5.70;;;2.30;;
70071;SDS011;57434;42.794;23.302;2022-09-13T08:21:16;4.88;;;1.95;;
70071;SDS011;57434;42.794;23.302;2022-09-13T08:23:42;4.93;;;1.52;;
70071;SDS011;57434;42.794;23.302;2022-09-13T08:26:08;5.13;;;1.60;;
70071;SDS011;57434;42.794;23.302;2022-09-13T08:28:35;4.97;;;1.60;;
70071;SDS011;57434;42.794;23.302;2022-09-13T08:31:06;6.30;;;2.75;;
70071;SDS011;57434;42.794;23.302;2022-09-13T08:33:37;5.40;;;1.80;;
70071;SDS011;57434;42.794;23.302;2022-09-13T08:36:04;4.82;;;1.75;;
70071;SDS011;57434;42.794;23.302;2022-09-13T08:38:30;5.20;;;2.13;;
70071;SDS011;57434;42.794;23.302;2022-09-13T08:41:04;5.47;;;2.50;;
70071;SDS011;57434;42.794;23.302;2022-09-13T08:46:28;5.53;;;2.50;;
70071;SDS011;57434;42.794;23.302;2022-09-13T08:49:00;4.60;;;1.95;;
70071;SDS011;57434;42.794;23.302;2022-09-13T08:51:35;4.57;;;1.80;;
70071;SDS011;57434;42.794;23.302;2022-09-13T08:54:15;4.20;;;1.48;;
70071;SDS011;57434;42.794;23.302;2022-09-13T09:04:56;4.97;;;2.17;;
70071;SDS011;57434;42.794;23.302;2022-09-13T09:07:59;4.82;;;2.20;;
70071;SDS011;57434;42.794;23.302;2022-09-13T09:10:46;5.43;;;2.15;;
70071;SDS011;57434;42.794;23.302;2022-09-13T09:13:21;5.32;;;1.90;;
70071;SDS011;57434;42.794;23.302;2022-09-13T09:16:09;4.55;;;1.60;;
70071;SDS011;57434;42.794;23.302;2022-09-13T09:18:39;4.47;;;1.80;;
70071;SDS011;57434;42.794;23.302;2022-09-13T09:21:11;4.30;;;1.50;;
70071;SDS011;57434;42.794;23.302;2022-09-13T09:23:47;4.30;;;1.80;;
70071;SDS011;57434;42.794;23.302;2022-09-13T09:26:25;5.00;;;1.50;;
70071;SDS011;57434;42.794;23.302;2022-09-13T09:28:54;4.05;;;1.70;;
70071;SDS011;57434;42.794;23.302;2022-09-13T09:39:24;4.53;;;1.92;;
70071;SDS011;57434;42.794;23.302;2022-09-13T09:41:56;4.70;;;1.92;;
70071;SDS011;57434;42.794;23.302;2022-09-13T09:44:24;5.87;;;2.70;;
70071;SDS011;57434;42.794;23.302;2022-09-13T09:46:56;4.40;;;1.77;;
70071;SDS011;57434;42.794;23.302;2022-09-13T09:52:42;5.03;;;1.65;;
70071;SDS011;57434;42.794;23.302;2022-09-13T09:55:11;4.60;;;1.65;;
70071;SDS011;57434;42.794;23.302;2022-09-13T09:57:49;4.73;;;1.60;;
70071;SDS011;57434;42.794;23.302;2022-09-13T10:00:21;5.57;;;2.15;;
70071;SDS011;57434;42.794;23.302;2022-09-13T10:02:49;4.07;;;1.80;;
70071;SDS011;57434;42.794;23.302;2022-09-13T10:05:18;5.10;;;2.25;;
70071;SDS011;57434;42.794;23.302;2022-09-13T10:10:51;6.10;;;2.07;;
70071;SDS011;57434;42.794;23.302;2022-09-13T10:13:19;6.10;;;2.15;;
70071;SDS011;57434;42.794;23.302;2022-09-13T10:15:57;6.25;;;1.90;;
70071;SDS011;57434;42.794;23.302;2022-09-13T10:18:32;4.78;;;2.30;;
70071;SDS011;57434;42.794;23.302;2022-09-13T10:23:34;4.33;;;1.90;;
70071;SDS011;57434;42.794;23.302;2022-09-13T10:26:16;4.93;;;2.40;;
70071;SDS011;57434;42.794;23.302;2022-09-13T10:31:17;5.75;;;2.13;;
70071;SDS011;57434;42.794;23.302;2022-09-13T10:39:23;4.22;;;1.70;;
70071;SDS011;57434;42.794;23.302;2022-09-13T10:42:00;4.80;;;1.80;;
70071;SDS011;57434;42.794;23.302;2022-09-13T10:44:35;4.00;;;1.83;;
70071;SDS011;57434;42.794;23.302;2022-09-13T10:47:22;5.25;;;1.92;;
70071;SDS011;57434;42.794;23.302;2022-09-13T10:49:52;6.70;;;2.17;;
70071;SDS011;57434;42.794;23.302;2022-09-13T10:55:43;6.25;;;1.95;;
70071;SDS011;57434;42.794;23.302;2022-09-13T11:01:15;4.75;;;2.38;;
70071;SDS011;57434;42.794;23.302;2022-09-13T11:08:15;5.20;;;2.60;;
70071;SDS011;57434;42.794;23.302;2022-09-13T11:22:08;4.85;;;1.65;;
70071;SDS011;57434;42.794;23.302;2022-09-13T11:27:23;4.65;;;2.38;;
70071;SDS011;57434;42.794;23.302;2022-09-13T11:30:00;4.50;;;2.00;;
70071;SDS011;57434;42.794;23.302;2022-09-13T11:35:26;4.53;;;2.10;;
70071;SDS011;57434;42.794;23.302;2022-09-13T11:38:17;4.80;;;2.30;;
70071;SDS011;57434;42.794;23.302;2022-09-13T11:43:53;5.27;;;2.77;;
70071;SDS011;57434;42.794;23.302;2022-09-13T11:46:45;3.30;;;1.40;;
70071;SDS011;57434;42.794;23.302;2022-09-13T11:52:02;8.98;;;2.10;;
70071;SDS011;57434;42.794;23.302;2022-09-13T11:57:26;4.37;;;2.10;;
70071;SDS011;57434;42.794;23.302;2022-09-13T12:05:31;7.53;;;3.35;;
70071;SDS011;57434;42.794;23.302;2022-09-13T12:10:55;4.77;;;2.17;;
70071;SDS011;57434;42.794;23.302;2022-09-13T12:13:28;4.30;;;1.83;;
70071;SDS011;57434;42.794;23.302;2022-09-13T12:16:01;4.70;;;1.77;;
70071;SDS011;57434;42.794;23.302;2022-09-13T12:21:20;3.92;;;1.60;;
70071;SDS011;57434;42.794;23.302;2022-09-13T12:26:38;8.73;;;1.70;;
70071;SDS011;57434;42.794;23.302;2022-09-13T12:29:27;5.32;;;1.95;;
70071;SDS011;57434;42.794;23.302;2022-09-13T12:32:15;3.80;;;1.60;;
70071;SDS011;57434;42.794;23.302;2022-09-13T12:34:50;4.80;;;2.00;;
70071;SDS011;57434;42.794;23.302;2022-09-13T12:55:25;6.00;;;2.03;;
70071;SDS011;57434;42.794;23.302;2022-09-13T12:58:02;5.65;;;2.08;;
70071;SDS011;57434;42.794;23.302;2022-09-13T13:04:07;4.45;;;1.83;;
70071;SDS011;57434;42.794;23.302;2022-09-13T13:09:36;5.43;;;3.03;;
70071;SDS011;57434;42.794;23.302;2022-09-13T13:12:07;6.35;;;2.72;;
70071;SDS011;57434;42.794;23.302;2022-09-13T13:20:37;4.50;;;1.80;;
70071;SDS011;57434;42.794;23.302;2022-09-13T13:23:12;3.88;;;1.60;;
70071;SDS011;57434;42.794;23.302;2022-09-13T13:26:02;6.38;;;2.70;;
70071;SDS011;57434;42.794;23.302;2022-09-13T13:31:44;5.70;;;2.67;;
70071;SDS011;57434;42.794;23.302;2022-09-13T13:34:34;5.07;;;2.43;;
70071;SDS011;57434;42.794;23.302;2022-09-13T13:37:27;5.78;;;3.33;;
70071;SDS011;57434;42.794;23.302;2022-09-13T13:42:47;5.07;;;2.30;;
70071;SDS011;57434;42.794;23.302;2022-09-13T13:45:15;4.57;;;2.30;;
70071;SDS011;57434;42.794;23.302;2022-09-13T13:53:36;4.43;;;2.28;;
70071;SDS011;57434;42.794;23.302;2022-09-13T13:59:07;4.30;;;2.22;;
70071;SDS011;57434;42.794;23.302;2022-09-13T14:01:47;5.43;;;2.20;;
70071;SDS011;57434;42.794;23.302;2022-09-13T14:04:43;5.13;;;2.50;;
70071;SDS011;57434;42.794;23.302;2022-09-13T14:10:02;4.80;;;2.22;;
70071;SDS011;57434;42.794;23.302;2022-09-13T14:12:59;6.40;;;2.15;;
70071;SDS011;57434;42.794;23.302;2022-09-13T14:21:00;5.10;;;2.30;;
70071;SDS011;57434;42.794;23.302;2022-09-13T14:23:29;4.97;;;2.53;;
70071;SDS011;57434;42.794;23.302;2022-09-13T14:25:59;6.53;;;2.83;;
70071;SDS011;57434;42.794;23.302;2022-09-13T14:28:27;4.40;;;2.47;;
70071;SDS011;57434;42.794;23.302;2022-09-13T14:30:54;4.65;;;2.30;;
70071;SDS011;57434;42.794;23.302;2022-09-13T14:33:27;5.03;;;2.63;;
70071;SDS011;57434;42.794;23.302;2022-09-13T14:35:58;4.78;;;2.53;;
70071;SDS011;57434;42.794;23.302;2022-09-13T14:41:33;5.53;;;2.23;;
70071;SDS011;57434;42.794;23.302;2022-09-13T14:46:43;6.03;;;2.50;;
70071;SDS011;57434;42.794;23.302;2022-09-13T14:49:14;5.63;;;2.55;;
70071;SDS011;57434;42.794;23.302;2022-09-13T14:51:49;4.85;;;2.13;;
70071;SDS011;57434;42.794;23.302;2022-09-13T14:54:27;4.53;;;2.00;;
70071;SDS011;57434;42.794;23.302;2022-09-13T14:57:01;5.88;;;2.53;;
70071;SDS011;57434;42.794;23.302;2022-09-13T14:59:31;4.60;;;2.15;;
70071;SDS011;57434;42.794;23.302;2022-09-13T15:02:04;4.20;;;2.20;;
70071;SDS011;57434;42.794;23.302;2022-09-13T15:04:31;4.65;;;2.13;;
70071;SDS011;57434;42.794;23.302;2022-09-13T15:07:58;3.97;;;1.70;;
70071;SDS011;57434;42.794;23.302;2022-09-13T15:10:41;4.35;;;2.05;;
70071;SDS011;57434;42.794;23.302;2022-09-13T15:12:54;4.50;;;2.13;;
70071;SDS011;57434;42.794;23.302;2022-09-13T15:20:57;5.27;;;2.10;;
70071;SDS011;57434;42.794;23.302;2022-09-13T15:23:34;6.03;;;3.10;;
70071;SDS011;57434;42.794;23.302;2022-09-13T15:31:07;10.15;;;5.47;;
70071;SDS011;57434;42.794;23.302;2022-09-13T15:33:36;11.57;;;6.20;;
70071;SDS011;57434;42.794;23.302;2022-09-13T15:36:38;7.20;;;4.20;;
70071;SDS011;57434;42.794;23.302;2022-09-13T15:39:17;4.50;;;2.30;;
70071;SDS011;57434;42.794;23.302;2022-09-13T15:41:53;4.88;;;2.10;;
70071;SDS011;57434;42.794;23.302;2022-09-13T15:44:20;5.50;;;2.53;;
70071;SDS011;57434;42.794;23.302;2022-09-13T15:46:52;6.27;;;3.37;;
70071;SDS011;57434;42.794;23.302;2022-09-13T15:49:20;5.03;;;2.53;;
70071;SDS011;57434;42.794;23.302;2022-09-13T15:51:58;8.15;;;4.45;;
70071;SDS011;57434;42.794;23.302;2022-09-13T15:54:37;5.38;;;2.63;;
70071;SDS011;57434;42.794;23.302;2022-09-13T15:57:09;5.85;;;2.47;;
70071;SDS011;57434;42.794;23.302;2022-09-13T15:59:42;5.70;;;2.87;;
70071;SDS011;57434;42.794;23.302;2022-09-13T16:02:14;5.43;;;2.60;;
70071;SDS011;57434;42.794;23.302;2022-09-13T16:04:45;8.25;;;4.47;;
70071;SDS011;57434;42.794;23.302;2022-09-13T16:07:20;12.65;;;7.22;;
70071;SDS011;57434;42.794;23.302;2022-09-13T16:09:47;8.13;;;4.47;;
70071;SDS011;57434;42.794;23.302;2022-09-13T16:12:22;7.75;;;2.90;;
70071;SDS011;57434;42.794;23.302;2022-09-13T16:14:51;5.85;;;2.95;;
70071;SDS011;57434;42.794;23.302;2022-09-13T16:17:19;5.45;;;2.67;;
70071;SDS011;57434;42.794;23.302;2022-09-13T16:19:46;5.45;;;2.50;;
70071;SDS011;57434;42.794;23.302;2022-09-13T16:22:12;5.00;;;2.50;;
70071;SDS011;57434;42.794;23.302;2022-09-13T16:24:38;6.75;;;3.03;;
70071;SDS011;57434;42.794;23.302;2022-09-13T16:27:03;6.13;;;3.00;;
70071;SDS011;57434;42.794;23.302;2022-09-13T16:29:29;5.80;;;3.10;;
70071;SDS011;57434;42.794;23.302;2022-09-13T16:31:55;10.32;;;3.35;;
70071;SDS011;57434;42.794;23.302;2022-09-13T16:34:24;6.68;;;2.90;;
70071;SDS011;57434;42.794;23.302;2022-09-13T16:36:50;5.88;;;3.15;;
70071;SDS011;57434;42.794;23.302;2022-09-13T16:39:16;5.50;;;2.80;;
70071;SDS011;57434;42.794;23.302;2022-09-13T16:41:44;5.88;;;2.92;;
70071;SDS011;57434;42.794;23.302;2022-09-13T16:44:10;5.97;;;3.25;;
70071;SDS011;57434;42.794;23.302;2022-09-13T16:46:36;9.33;;;3.60;;
70071;SDS011;57434;42.794;23.302;2022-09-13T16:49:02;9.48;;;4.38;;
70071;SDS011;57434;42.794;23.302;2022-09-13T16:51:28;8.88;;;3.67;;
70071;SDS011;57434;42.794;23.302;2022-09-13T16:53:54;9.00;;;3.80;;
70071;SDS011;57434;42.794;23.302;2022-09-13T16:56:22;7.53;;;3.30;;
70071;SDS011;57434;42.794;23.302;2022-09-13T16:58:50;8.13;;;4.13;;
70071;SDS011;57434;42.794;23.302;2022-09-13T17:01:19;8.82;;;3.72;;
70071;SDS011;57434;42.794;23.302;2022-09-13T17:03:47;9.13;;;3.72;;
70071;SDS011;57434;42.794;23.302;2022-09-13T17:06:14;6.72;;;3.45;;
70071;SDS011;57434;42.794;23.302;2022-09-13T17:08:46;7.50;;;3.57;;
70071;SDS011;57434;42.794;23.302;2022-09-13T17:11:14;6.10;;;3.80;;
70071;SDS011;57434;42.794;23.302;2022-09-13T17:13:41;6.88;;;3.70;;
70071;SDS011;57434;42.794;23.302;2022-09-13T17:16:18;8.35;;;3.50;;
70071;SDS011;57434;42.794;23.302;2022-09-13T17:18:50;9.30;;;4.50;;
70071;SDS011;57434;42.794;23.302;2022-09-13T17:21:17;7.73;;;4.40;;
70071;SDS011;57434;42.794;23.302;2022-09-13T17:23:44;7.68;;;4.65;;
70071;SDS011;57434;42.794;23.302;2022-09-13T17:26:11;23.40;;;6.70;;
70071;SDS011;57434;42.794;23.302;2022-09-13T17:28:36;8.90;;;5.03;;
70071;SDS011;57434;42.794;23.302;2022-09-13T17:31:02;9.30;;;4.57;;
70071;SDS011;57434;42.794;23.302;2022-09-13T17:33:29;9.52;;;4.30;;
70071;SDS011;57434;42.794;23.302;2022-09-13T17:36:02;9.48;;;4.03;;
70071;SDS011;57434;42.794;23.302;2022-09-13T17:38:31;6.37;;;3.50;;
70071;SDS011;57434;42.794;23.302;2022-09-13T17:40:57;7.35;;;3.00;;
70071;SDS011;57434;42.794;23.302;2022-09-13T17:43:27;5.53;;;3.22;;
70071;SDS011;57434;42.794;23.302;2022-09-13T17:45:53;7.00;;;3.93;;
70071;SDS011;57434;42.794;23.302;2022-09-13T17:48:19;10.40;;;3.93;;
70071;SDS011;57434;42.794;23.302;2022-09-13T17:50:45;7.28;;;3.75;;
70071;SDS011;57434;42.794;23.302;2022-09-13T17:53:11;7.78;;;4.00;;
70071;SDS011;57434;42.794;23.302;2022-09-13T17:55:44;9.00;;;4.10;;
70071;SDS011;57434;42.794;23.302;2022-09-13T17:58:11;9.20;;;4.18;;
70071;SDS011;57434;42.794;23.302;2022-09-13T18:00:37;8.20;;;4.15;;
70071;SDS011;57434;42.794;23.302;2022-09-13T18:03:03;7.77;;;3.80;;
70071;SDS011;57434;42.794;23.302;2022-09-13T18:05:29;6.05;;;3.40;;
70071;SDS011;57434;42.794;23.302;2022-09-13T18:07:55;6.60;;;3.90;;
70071;SDS011;57434;42.794;23.302;2022-09-13T18:10:21;12.02;;;6.18;;
70071;SDS011;57434;42.794;23.302;2022-09-13T18:12:47;12.90;;;8.30;;
70071;SDS011;57434;42.794;23.302;2022-09-13T18:15:13;8.55;;;4.75;;
70071;SDS011;57434;42.794;23.302;2022-09-13T18:17:39;6.47;;;3.30;;
70071;SDS011;57434;42.794;23.302;2022-09-13T18:20:04;8.02;;;3.67;;
70071;SDS011;57434;42.794;23.302;2022-09-13T18:22:31;8.45;;;4.20;;